sensor_id;sensor_type;location;lat;lon;timestamp;pressure;altitude;pressure_sealevel;temperature;humidity
59329;BME280;45100;46.926;7.452;2023-10-09T00:01:14;96145.48;;;14.44;75.38
59329;BME280;45100;46.926;7.452;2023-10-09T00:03:32;96146.16;;;14.42;75.23
59329;BME280;45100;46.926;7.452;2023-10-09T00:06:05;96141.75;;;14.40;75.38
59329;BME280;45100;46.926;7.452;2023-10-09T00:08:31;96146.48;;;14.37;75.68
59329;BME280;45100;46.926;7.452;2023-10-09T00:11:19;96146.03;;;14.34;76.28
59329;BME280;45100;46.926;7.452;2023-10-09T00:13:33;96150.36;;;14.30;77.01
59329;BME280;45100;46.926;7.452;2023-10-09T00:16:16;96147.91;;;14.25;77.10
59329;BME280;45100;46.926;7.452;2023-10-09T00:18:35;96145.89;;;14.20;77.10
59329;BME280;45100;46.926;7.452;2023-10-09T00:21:14;96142.91;;;14.16;77.19
59329;BME280;45100;46.926;7.452;2023-10-09T00:23:34;96145.85;;;14.13;77.50
59329;BME280;45100;46.926;7.452;2023-10-09T00:26:16;96147.88;;;14.12;77.30
59329;BME280;45100;46.926;7.452;2023-10-09T00:28:36;96148.42;;;14.09;77.41
59329;BME280;45100;46.926;7.452;2023-10-09T00:31:08;96145.95;;;14.05;77.80
59329;BME280;45100;46.926;7.452;2023-10-09T00:33:35;96146.62;;;14.02;78.12
59329;BME280;45100;46.926;7.452;2023-10-09T00:36:10;96143.70;;;13.97;78.52
59329;BME280;45100;46.926;7.452;2023-10-09T00:38:37;96140.87;;;13.95;78.88
59329;BME280;45100;46.926;7.452;2023-10-09T00:41:18;96139.03;;;13.92;79.15
59329;BME280;45100;46.926;7.452;2023-10-09T00:43:38;96137.98;;;13.89;79.38
59329;BME280;45100;46.926;7.452;2023-10-09T00:46:26;96138.17;;;13.85;79.56
59329;BME280;45100;46.926;7.452;2023-10-09T00:48:40;96134.26;;;13.83;79.89
59329;BME280;45100;46.926;7.452;2023-10-09T00:51:19;96135.08;;;13.82;79.90
59329;BME280;45100;46.926;7.452;2023-10-09T00:53:37;96138.12;;;13.80;79.79
59329;BME280;45100;46.926;7.452;2023-10-09T00:56:27;96136.31;;;13.78;80.08
59329;BME280;45100;46.926;7.452;2023-10-09T00:58:38;96135.55;;;13.77;80.19
59329;BME280;45100;46.926;7.452;2023-10-09T01:01:15;96132.05;;;13.74;80.36
59329;BME280;45100;46.926;7.452;2023-10-09T01:03:41;96132.39;;;13.72;80.48
59329;BME280;45100;46.926;7.452;2023-10-09T01:06:19;96128.48;;;13.69;80.69
59329;BME280;45100;46.926;7.452;2023-10-09T01:08:47;96124.20;;;13.67;80.86
59329;BME280;45100;46.926;7.452;2023-10-09T01:11:12;96121.89;;;13.63;80.93
59329;BME280;45100;46.926;7.452;2023-10-09T01:13:54;96119.34;;;13.61;81.12
59329;BME280;45100;46.926;7.452;2023-10-09T01:16:18;96123.16;;;13.58;81.07
59329;BME280;45100;46.926;7.452;2023-10-09T01:18:46;96123.34;;;13.55;81.17
59329;BME280;45100;46.926;7.452;2023-10-09T01:21:14;96120.17;;;13.53;81.37
59329;BME280;45100;46.926;7.452;2023-10-09T01:24:05;96121.00;;;13.51;81.27
59329;BME280;45100;46.926;7.452;2023-10-09T01:28:46;96117.38;;;13.46;81.46
59329;BME280;45100;46.926;7.452;2023-10-09T01:31:17;96115.61;;;13.45;81.60
59329;BME280;45100;46.926;7.452;2023-10-09T01:33:47;96114.84;;;13.42;81.72
59329;BME280;45100;46.926;7.452;2023-10-09T01:36:18;96114.23;;;13.42;81.30
59329;BME280;45100;46.926;7.452;2023-10-09T01:38:51;96116.19;;;13.40;81.37
59329;BME280;45100;46.926;7.452;2023-10-09T01:41:20;96117.11;;;13.38;81.77
59329;BME280;45100;46.926;7.452;2023-10-09T01:43:53;96111.12;;;13.37;81.90
59329;BME280;45100;46.926;7.452;2023-10-09T01:46:20;96114.60;;;13.34;82.02
59329;BME280;45100;46.926;7.452;2023-10-09T01:48:50;96112.84;;;13.31;82.23
59329;BME280;45100;46.926;7.452;2023-10-09T01:51:21;96113.36;;;13.29;82.65
59329;BME280;45100;46.926;7.452;2023-10-09T01:53:57;96116.70;;;13.29;82.12
59329;BME280;45100;46.926;7.452;2023-10-09T01:56:21;96116.75;;;13.26;81.95
59329;BME280;45100;46.926;7.452;2023-10-09T01:59:02;96122.39;;;13.23;81.99
59329;BME280;45100;46.926;7.452;2023-10-09T02:01:23;96119.48;;;13.19;82.14
59329;BME280;45100;46.926;7.452;2023-10-09T02:03:55;96116.84;;;13.16;82.32
59329;BME280;45100;46.926;7.452;2023-10-09T02:06:33;96113.39;;;13.12;82.50
59329;BME280;45100;46.926;7.452;2023-10-09T02:08:56;96110.97;;;13.09;82.71
59329;BME280;45100;46.926;7.452;2023-10-09T02:11:46;96111.39;;;13.08;82.75
59329;BME280;45100;46.926;7.452;2023-10-09T02:14:03;96108.86;;;13.08;82.43
59329;BME280;45100;46.926;7.452;2023-10-09T02:16:29;96107.94;;;13.10;81.90
59329;BME280;45100;46.926;7.452;2023-10-09T02:18:59;96105.89;;;13.12;81.66
59329;BME280;45100;46.926;7.452;2023-10-09T02:21:34;96104.91;;;13.13;81.10
59329;BME280;45100;46.926;7.452;2023-10-09T02:23:57;96101.62;;;13.15;80.73
59329;BME280;45100;46.926;7.452;2023-10-09T02:26:45;96103.89;;;13.17;80.73
59329;BME280;45100;46.926;7.452;2023-10-09T02:29:09;96106.98;;;13.20;80.54
59329;BME280;45100;46.926;7.452;2023-10-09T02:31:44;96105.62;;;13.21;80.09
59329;BME280;45100;46.926;7.452;2023-10-09T02:34:08;96109.30;;;13.18;80.13
59329;BME280;45100;46.926;7.452;2023-10-09T02:36:31;96111.52;;;13.17;80.61
59329;BME280;45100;46.926;7.452;2023-10-09T02:39:01;96109.78;;;13.13;80.90
59329;BME280;45100;46.926;7.452;2023-10-09T02:41:35;96113.89;;;13.09;81.06
59329;BME280;45100;46.926;7.452;2023-10-09T02:44:11;96113.29;;;13.06;81.35
59329;BME280;45100;46.926;7.452;2023-10-09T02:46:35;96111.52;;;13.01;81.57
59329;BME280;45100;46.926;7.452;2023-10-09T02:49:07;96110.25;;;12.97;81.66
59329;BME280;45100;46.926;7.452;2023-10-09T02:51:33;96108.16;;;12.92;81.82
59329;BME280;45100;46.926;7.452;2023-10-09T02:54:19;96104.27;;;12.89;81.43
59329;BME280;45100;46.926;7.452;2023-10-09T02:56:48;96108.98;;;12.89;80.93
59329;BME280;45100;46.926;7.452;2023-10-09T02:59:08;96107.78;;;12.88;80.66
59329;BME280;45100;46.926;7.452;2023-10-09T03:01:39;96100.88;;;12.89;80.28
59329;BME280;45100;46.926;7.452;2023-10-09T03:04:07;96102.03;;;12.90;79.59
59329;BME280;45100;46.926;7.452;2023-10-09T03:06:49;96102.52;;;12.90;79.35
59329;BME280;45100;46.926;7.452;2023-10-09T03:09:18;96101.58;;;12.89;79.18
59329;BME280;45100;46.926;7.452;2023-10-09T03:11:38;96100.28;;;12.89;79.29
59329;BME280;45100;46.926;7.452;2023-10-09T03:14:08;96102.39;;;12.89;79.45
59329;BME280;45100;46.926;7.452;2023-10-09T03:16:39;96104.11;;;12.90;79.57
59329;BME280;45100;46.926;7.452;2023-10-09T03:19:14;96104.37;;;12.90;79.15
59329;BME280;45100;46.926;7.452;2023-10-09T03:21:41;96102.75;;;12.90;79.14
59329;BME280;45100;46.926;7.452;2023-10-09T03:24:12;96106.70;;;12.89;78.68
59329;BME280;45100;46.926;7.452;2023-10-09T03:26:42;96106.78;;;12.86;78.69
59329;BME280;45100;46.926;7.452;2023-10-09T03:29:12;96105.85;;;12.84;79.04
59329;BME280;45100;46.926;7.452;2023-10-09T03:31:43;96107.55;;;12.82;79.33
59329;BME280;45100;46.926;7.452;2023-10-09T03:34:14;96107.71;;;12.80;79.62
59329;BME280;45100;46.926;7.452;2023-10-09T03:36:47;96104.21;;;12.80;79.97
59329;BME280;45100;46.926;7.452;2023-10-09T03:39:39;96103.14;;;12.82;80.54
59329;BME280;45100;46.926;7.452;2023-10-09T03:41:47;96103.38;;;12.84;79.92
59329;BME280;45100;46.926;7.452;2023-10-09T03:44:19;96097.53;;;12.86;79.29
59329;BME280;45100;46.926;7.452;2023-10-09T03:46:46;96098.91;;;12.85;78.95
59329;BME280;45100;46.926;7.452;2023-10-09T03:49:26;96099.49;;;12.84;79.58
59329;BME280;45100;46.926;7.452;2023-10-09T03:51:47;96098.58;;;12.85;79.84
59329;BME280;45100;46.926;7.452;2023-10-09T03:54:21;96099.61;;;12.87;80.03
59329;BME280;45100;46.926;7.452;2023-10-09T03:56:50;96096.07;;;12.89;80.21
59329;BME280;45100;46.926;7.452;2023-10-09T03:59:21;96093.11;;;12.91;79.80
59329;BME280;45100;46.926;7.452;2023-10-09T04:01:53;96095.78;;;12.94;79.50
59329;BME280;45100;46.926;7.452;2023-10-09T04:04:23;96097.22;;;12.94;79.50
59329;BME280;45100;46.926;7.452;2023-10-09T04:06:50;96095.43;;;12.94;79.31
59329;BME280;45100;46.926;7.452;2023-10-09T04:09:29;96100.49;;;12.94;79.22
59329;BME280;45100;46.926;7.452;2023-10-09T04:12:15;96103.30;;;12.90;79.23
59329;BME280;45100;46.926;7.452;2023-10-09T04:14:35;96105.12;;;12.87;80.28
59329;BME280;45100;46.926;7.452;2023-10-09T04:16:52;96102.35;;;12.83;81.13
59329;BME280;45100;46.926;7.452;2023-10-09T04:19:25;96110.41;;;12.78;81.87
59329;BME280;45100;46.926;7.452;2023-10-09T04:21:59;96108.06;;;12.74;82.46
59329;BME280;45100;46.926;7.452;2023-10-09T04:24:25;96107.92;;;12.67;82.71
59329;BME280;45100;46.926;7.452;2023-10-09T04:26:58;96109.76;;;12.60;83.08
59329;BME280;45100;46.926;7.452;2023-10-09T04:29:27;96108.47;;;12.54;83.63
59329;BME280;45100;46.926;7.452;2023-10-09T04:31:57;96108.58;;;12.50;84.10
59329;BME280;45100;46.926;7.452;2023-10-09T04:34:35;96108.53;;;12.46;84.29
59329;BME280;45100;46.926;7.452;2023-10-09T04:37:01;96101.89;;;12.42;84.37
59329;BME280;45100;46.926;7.452;2023-10-09T04:39:37;96101.22;;;12.38;84.52
59329;BME280;45100;46.926;7.452;2023-10-09T04:42:31;96103.88;;;12.35;84.79
59329;BME280;45100;46.926;7.452;2023-10-09T04:44:37;96100.55;;;12.33;84.66
59329;BME280;45100;46.926;7.452;2023-10-09T04:47:20;96101.46;;;12.31;84.55
59329;BME280;45100;46.926;7.452;2023-10-09T04:49:29;96092.20;;;12.29;84.39
59329;BME280;45100;46.926;7.452;2023-10-09T04:52:10;96098.45;;;12.26;84.41
59329;BME280;45100;46.926;7.452;2023-10-09T04:54:41;96097.29;;;12.23;84.55
59329;BME280;45100;46.926;7.452;2023-10-09T04:57:00;96097.95;;;12.22;85.07
59329;BME280;45100;46.926;7.452;2023-10-09T04:59:29;96102.38;;;12.21;85.21
59329;BME280;45100;46.926;7.452;2023-10-09T05:02:00;96102.61;;;12.18;85.05
59329;BME280;45100;46.926;7.452;2023-10-09T05:04:43;96102.00;;;12.15;85.05
59329;BME280;45100;46.926;7.452;2023-10-09T05:07:13;96106.73;;;12.12;85.15
59329;BME280;45100;46.926;7.452;2023-10-09T05:09:41;96108.78;;;12.10;85.10
59329;BME280;45100;46.926;7.452;2023-10-09T05:12:16;96112.41;;;12.07;85.02
59329;BME280;45100;46.926;7.452;2023-10-09T05:14:39;96109.50;;;12.04;85.10
59329;BME280;45100;46.926;7.452;2023-10-09T05:17:07;96108.81;;;12.02;85.16
59329;BME280;45100;46.926;7.452;2023-10-09T05:20:02;96107.55;;;11.98;85.12
59329;BME280;45100;46.926;7.452;2023-10-09T05:22:15;96105.42;;;11.96;85.25
59329;BME280;45100;46.926;7.452;2023-10-09T05:24:43;96101.50;;;11.93;85.46
59329;BME280;45100;46.926;7.452;2023-10-09T05:27:19;96106.00;;;11.92;85.75
59329;BME280;45100;46.926;7.452;2023-10-09T05:29:56;96108.40;;;11.93;85.72
59329;BME280;45100;46.926;7.452;2023-10-09T05:32:20;96111.19;;;11.94;85.75
59329;BME280;45100;46.926;7.452;2023-10-09T05:34:35;96114.03;;;11.95;85.54
59329;BME280;45100;46.926;7.452;2023-10-09T05:37:29;96112.58;;;11.95;85.58
59329;BME280;45100;46.926;7.452;2023-10-09T05:39:42;96119.22;;;11.94;85.73
59329;BME280;45100;46.926;7.452;2023-10-09T05:42:15;96120.91;;;11.92;85.76
59329;BME280;45100;46.926;7.452;2023-10-09T05:45:15;96122.27;;;11.91;85.62
59329;BME280;45100;46.926;7.452;2023-10-09T05:47:34;96125.50;;;11.90;85.85
59329;BME280;45100;46.926;7.452;2023-10-09T05:49:47;96125.14;;;11.90;85.99
59329;BME280;45100;46.926;7.452;2023-10-09T05:52:34;96128.67;;;11.92;85.78
59329;BME280;45100;46.926;7.452;2023-10-09T05:55:13;96125.50;;;11.94;85.60
59329;BME280;45100;46.926;7.452;2023-10-09T05:58:19;96129.48;;;11.96;85.24
59329;BME280;45100;46.926;7.452;2023-10-09T06:00:54;96130.78;;;11.97;85.35
59329;BME280;45100;46.926;7.452;2023-10-09T06:03:24;96131.11;;;11.97;85.12
59329;BME280;45100;46.926;7.452;2023-10-09T06:05:32;96132.72;;;11.99;85.06
59329;BME280;45100;46.926;7.452;2023-10-09T06:08:07;96134.47;;;12.05;85.10
59329;BME280;45100;46.926;7.452;2023-10-09T06:10:29;96129.73;;;12.14;84.56
59329;BME280;45100;46.926;7.452;2023-10-09T06:12:50;96133.01;;;12.19;83.87
59329;BME280;45100;46.926;7.452;2023-10-09T06:15:37;96128.89;;;12.22;83.53
59329;BME280;45100;46.926;7.452;2023-10-09T06:17:51;96131.35;;;12.21;83.32
59329;BME280;45100;46.926;7.452;2023-10-09T06:20:45;96132.09;;;12.22;83.04
59329;BME280;45100;46.926;7.452;2023-10-09T06:22:59;96130.61;;;12.21;83.09
59329;BME280;45100;46.926;7.452;2023-10-09T06:25:35;96131.25;;;12.23;83.47
59329;BME280;45100;46.926;7.452;2023-10-09T06:27:59;96135.81;;;12.27;83.27
59329;BME280;45100;46.926;7.452;2023-10-09T06:30:26;96142.59;;;12.31;83.28
59329;BME280;45100;46.926;7.452;2023-10-09T06:33:25;96147.67;;;12.36;82.88
59329;BME280;45100;46.926;7.452;2023-10-09T06:35:34;96154.34;;;12.40;83.06
59329;BME280;45100;46.926;7.452;2023-10-09T06:38:23;96154.78;;;12.45;82.99
59329;BME280;45100;46.926;7.452;2023-10-09T06:40:58;96157.38;;;12.49;83.12
59329;BME280;45100;46.926;7.452;2023-10-09T06:42:57;96155.29;;;12.54;82.61
59329;BME280;45100;46.926;7.452;2023-10-09T06:45:37;96154.67;;;12.56;82.35
59329;BME280;45100;46.926;7.452;2023-10-09T06:48:13;96155.05;;;12.61;81.97
59329;BME280;45100;46.926;7.452;2023-10-09T06:50:51;96152.97;;;12.65;81.73
59329;BME280;45100;46.926;7.452;2023-10-09T06:53:14;96154.91;;;12.68;81.67
59329;BME280;45100;46.926;7.452;2023-10-09T06:55:42;96159.41;;;12.73;81.09
59329;BME280;45100;46.926;7.452;2023-10-09T06:58:02;96164.03;;;12.76;80.64
59329;BME280;45100;46.926;7.452;2023-10-09T07:01:03;96166.07;;;12.77;80.57
59329;BME280;45100;46.926;7.452;2023-10-09T07:03:10;96165.18;;;12.83;80.52
59329;BME280;45100;46.926;7.452;2023-10-09T07:05:40;96164.41;;;12.90;80.03
59329;BME280;45100;46.926;7.452;2023-10-09T07:08:11;96165.10;;;12.97;79.78
59329;BME280;45100;46.926;7.452;2023-10-09T07:10:38;96161.83;;;13.05;79.44
59329;BME280;45100;46.926;7.452;2023-10-09T07:13:03;96157.91;;;13.13;79.31
59329;BME280;45100;46.926;7.452;2023-10-09T07:16:09;96160.38;;;13.21;79.26
59329;BME280;45100;46.926;7.452;2023-10-09T07:18:12;96156.11;;;13.31;78.95
59329;BME280;45100;46.926;7.452;2023-10-09T07:20:39;96158.95;;;13.40;78.68
59329;BME280;45100;46.926;7.452;2023-10-09T07:26:03;96158.38;;;13.61;77.53
59329;BME280;45100;46.926;7.452;2023-10-09T07:28:35;96154.47;;;13.72;76.90
59329;BME280;45100;46.926;7.452;2023-10-09T07:30:48;96157.38;;;13.81;76.53
59329;BME280;45100;46.926;7.452;2023-10-09T07:33:19;96157.47;;;13.90;75.84
59329;BME280;45100;46.926;7.452;2023-10-09T07:36:01;96157.25;;;13.98;75.18
59329;BME280;45100;46.926;7.452;2023-10-09T07:38:21;96158.62;;;14.05;74.37
59329;BME280;45100;46.926;7.452;2023-10-09T07:40:56;96161.61;;;14.11;74.14
59329;BME280;45100;46.926;7.452;2023-10-09T07:43:35;96164.19;;;14.18;75.59
59329;BME280;45100;46.926;7.452;2023-10-09T07:46:04;96166.94;;;14.22;75.77
59329;BME280;45100;46.926;7.452;2023-10-09T07:48:26;96165.02;;;14.28;76.26
59329;BME280;45100;46.926;7.452;2023-10-09T07:50:59;96173.84;;;14.34;76.39
59329;BME280;45100;46.926;7.452;2023-10-09T07:53:29;96171.42;;;14.38;76.05
59329;BME280;45100;46.926;7.452;2023-10-09T07:55:56;96177.48;;;14.41;76.01
59329;BME280;45100;46.926;7.452;2023-10-09T07:58:25;96177.55;;;14.45;75.71
59329;BME280;45100;46.926;7.452;2023-10-09T08:01:08;96176.83;;;14.49;75.83
59329;BME280;45100;46.926;7.452;2023-10-09T08:03:30;96179.19;;;14.53;75.90
59329;BME280;45100;46.926;7.452;2023-10-09T08:08:40;96179.20;;;14.69;75.19
59329;BME280;45100;46.926;7.452;2023-10-09T08:11:34;96181.11;;;14.79;74.94
59329;BME280;45100;46.926;7.452;2023-10-09T08:14:01;96178.58;;;14.91;74.27
59329;BME280;45100;46.926;7.452;2023-10-09T08:18:45;96184.56;;;15.18;71.63
59329;BME280;45100;46.926;7.452;2023-10-09T08:21:18;96184.25;;;15.33;71.52
59329;BME280;45100;46.926;7.452;2023-10-09T08:23:50;96180.84;;;15.45;70.52
59329;BME280;45100;46.926;7.452;2023-10-09T08:26:16;96181.76;;;15.57;70.00
59329;BME280;45100;46.926;7.452;2023-10-09T08:28:44;96181.67;;;15.71;69.16
59329;BME280;45100;46.926;7.452;2023-10-09T08:31:25;96183.38;;;15.84;67.92
59329;BME280;45100;46.926;7.452;2023-10-09T08:33:42;96179.80;;;15.95;67.12
59329;BME280;45100;46.926;7.452;2023-10-09T08:36:10;96178.30;;;16.06;65.54
59329;BME280;45100;46.926;7.452;2023-10-09T08:38:45;96177.77;;;16.12;65.33
59329;BME280;45100;46.926;7.452;2023-10-09T08:41:19;96174.88;;;16.18;65.93
59329;BME280;45100;46.926;7.452;2023-10-09T08:43:48;96176.54;;;16.22;66.14
59329;BME280;45100;46.926;7.452;2023-10-09T08:46:19;96175.05;;;16.26;66.39
59329;BME280;45100;46.926;7.452;2023-10-09T08:48:42;96175.84;;;16.31;66.65
59329;BME280;45100;46.926;7.452;2023-10-09T08:51:12;96173.95;;;16.35;66.77
59329;BME280;45100;46.926;7.452;2023-10-09T08:53:46;96175.90;;;16.39;67.20
59329;BME280;45100;46.926;7.452;2023-10-09T08:58:56;96178.50;;;16.54;67.45
59329;BME280;45100;46.926;7.452;2023-10-09T09:01:22;96177.62;;;16.63;67.42
59329;BME280;45100;46.926;7.452;2023-10-09T09:03:52;96175.58;;;16.73;67.24
59329;BME280;45100;46.926;7.452;2023-10-09T09:06:22;96170.59;;;16.85;66.66
59329;BME280;45100;46.926;7.452;2023-10-09T09:09:11;96176.76;;;16.96;66.71
59329;BME280;45100;46.926;7.452;2023-10-09T09:11:25;96172.60;;;17.05;66.44
59329;BME280;45100;46.926;7.452;2023-10-09T09:14:02;96172.44;;;17.11;66.65
59329;BME280;45100;46.926;7.452;2023-10-09T09:16:25;96175.62;;;17.20;66.67
59329;BME280;45100;46.926;7.452;2023-10-09T09:19:05;96178.62;;;17.31;66.44
59329;BME280;45100;46.926;7.452;2023-10-09T09:21:24;96168.72;;;17.45;66.78
59329;BME280;45100;46.926;7.452;2023-10-09T09:23:57;96162.86;;;17.59;65.54
59329;BME280;45100;46.926;7.452;2023-10-09T09:26:36;96162.78;;;17.74;65.16
59329;BME280;45100;46.926;7.452;2023-10-09T09:28:56;96161.62;;;17.87;65.18
59329;BME280;45100;46.926;7.452;2023-10-09T09:31:25;96160.42;;;18.00;64.02
59329;BME280;45100;46.926;7.452;2023-10-09T09:33:59;96155.17;;;18.12;63.24
59329;BME280;45100;46.926;7.452;2023-10-09T09:36:34;96152.91;;;18.25;61.82
59329;BME280;45100;46.926;7.452;2023-10-09T09:39:02;96152.24;;;18.38;60.84
59329;BME280;45100;46.926;7.452;2023-10-09T09:41:29;96146.61;;;18.51;60.45
59329;BME280;45100;46.926;7.452;2023-10-09T09:44:02;96148.16;;;18.66;60.64
59329;BME280;45100;46.926;7.452;2023-10-09T09:46:37;96145.53;;;18.80;61.00
59329;BME280;45100;46.926;7.452;2023-10-09T09:49:02;96146.41;;;18.94;59.92
59329;BME280;45100;46.926;7.452;2023-10-09T09:51:31;96147.02;;;19.07;59.08
59329;BME280;45100;46.926;7.452;2023-10-09T09:54:02;96149.25;;;19.14;57.87
59329;BME280;45100;46.926;7.452;2023-10-09T09:56:32;96146.19;;;19.18;56.68
59329;BME280;45100;46.926;7.452;2023-10-09T09:59:03;96146.66;;;19.25;56.70
59329;BME280;45100;46.926;7.452;2023-10-09T10:01:37;96146.41;;;19.36;56.89
59329;BME280;45100;46.926;7.452;2023-10-09T10:04:08;96140.11;;;19.43;55.54
59329;BME280;45100;46.926;7.452;2023-10-09T10:06:34;96139.77;;;19.50;54.85
59329;BME280;45100;46.926;7.452;2023-10-09T10:09:06;96146.97;;;19.58;53.89
59329;BME280;45100;46.926;7.452;2023-10-09T10:11:42;96144.47;;;19.64;53.43
59329;BME280;45100;46.926;7.452;2023-10-09T10:14:13;96143.73;;;19.70;53.18
59329;BME280;45100;46.926;7.452;2023-10-09T10:19:08;96137.31;;;19.84;52.28
59329;BME280;45100;46.926;7.452;2023-10-09T10:21:41;96137.22;;;19.97;52.30
59329;BME280;45100;46.926;7.452;2023-10-09T10:26:36;96126.19;;;20.24;50.60
59329;BME280;45100;46.926;7.452;2023-10-09T10:29:20;96120.17;;;20.39;49.83
59329;BME280;45100;46.926;7.452;2023-10-09T10:31:57;96119.62;;;20.53;50.25
59329;BME280;45100;46.926;7.452;2023-10-09T10:34:12;96116.29;;;20.64;49.60
59329;BME280;45100;46.926;7.452;2023-10-09T10:36:43;96112.64;;;20.74;49.44
59329;BME280;45100;46.926;7.452;2023-10-09T10:39:19;96110.11;;;20.85;48.80
59329;BME280;45100;46.926;7.452;2023-10-09T10:41:55;96107.72;;;20.95;48.70
59329;BME280;45100;46.926;7.452;2023-10-09T10:44:39;96106.62;;;21.04;48.54
59329;BME280;45100;46.926;7.452;2023-10-09T10:46:46;96099.88;;;21.11;48.41
59329;BME280;45100;46.926;7.452;2023-10-09T10:49:21;96097.45;;;21.19;48.58
59329;BME280;45100;46.926;7.452;2023-10-09T10:51:50;96091.69;;;21.28;47.65
59329;BME280;45100;46.926;7.452;2023-10-09T10:54:39;96085.34;;;21.38;47.64
59329;BME280;45100;46.926;7.452;2023-10-09T10:56:51;96086.30;;;21.49;47.73
59329;BME280;45100;46.926;7.452;2023-10-09T10:59:14;96083.27;;;21.59;47.79
59329;BME280;45100;46.926;7.452;2023-10-09T11:02:16;96077.16;;;21.66;48.08
59329;BME280;45100;46.926;7.452;2023-10-09T11:04:26;96077.06;;;21.74;47.68
59329;BME280;45100;46.926;7.452;2023-10-09T11:06:56;96074.28;;;21.82;47.45
59329;BME280;45100;46.926;7.452;2023-10-09T11:09:26;96073.94;;;21.90;47.66
59329;BME280;45100;46.926;7.452;2023-10-09T11:11:48;96072.53;;;21.95;48.14
59329;BME280;45100;46.926;7.452;2023-10-09T11:14:16;96070.12;;;22.00;47.45
59329;BME280;45100;46.926;7.452;2023-10-09T11:16:50;96065.67;;;22.07;47.51
59329;BME280;45100;46.926;7.452;2023-10-09T11:19:32;96066.58;;;22.14;47.47
59329;BME280;45100;46.926;7.452;2023-10-09T11:22:00;96062.16;;;22.22;47.25
59329;BME280;45100;46.926;7.452;2023-10-09T11:24:28;96060.86;;;22.28;47.38
59329;BME280;45100;46.926;7.452;2023-10-09T11:26:56;96058.66;;;22.31;48.06
59329;BME280;45100;46.926;7.452;2023-10-09T11:29:49;96054.30;;;22.35;47.79
59329;BME280;45100;46.926;7.452;2023-10-09T11:32:03;96053.47;;;22.44;47.91
59329;BME280;45100;46.926;7.452;2023-10-09T11:34:33;96049.40;;;22.53;46.87
59329;BME280;45100;46.926;7.452;2023-10-09T11:39:37;96042.00;;;22.63;46.85
59329;BME280;45100;46.926;7.452;2023-10-09T11:42:02;96039.16;;;22.70;47.25
59329;BME280;45100;46.926;7.452;2023-10-09T11:47:33;96037.92;;;22.79;47.22
59329;BME280;45100;46.926;7.452;2023-10-09T11:49:51;96037.21;;;22.81;47.29
59329;BME280;45100;46.926;7.452;2023-10-09T11:52:58;96030.30;;;22.86;46.70
59329;BME280;45100;46.926;7.452;2023-10-09T11:54:36;96029.28;;;22.98;45.86
59329;BME280;45100;46.926;7.452;2023-10-09T11:57:06;96031.50;;;23.07;45.88
59329;BME280;45100;46.926;7.452;2023-10-09T11:59:39;96024.30;;;23.14;46.07
59329;BME280;45100;46.926;7.452;2023-10-09T12:02:14;96021.92;;;23.20;45.63
59329;BME280;45100;46.926;7.452;2023-10-09T12:04:37;96020.48;;;23.25;46.27
59329;BME280;45100;46.926;7.452;2023-10-09T12:07:08;96014.79;;;23.29;45.41
59329;BME280;45100;46.926;7.452;2023-10-09T12:09:38;96014.45;;;23.34;46.42
59329;BME280;45100;46.926;7.452;2023-10-09T12:12:09;96007.88;;;23.39;46.22
59329;BME280;45100;46.926;7.452;2023-10-09T12:14:38;96001.33;;;23.42;46.22
59329;BME280;45100;46.926;7.452;2023-10-09T12:17:09;96001.50;;;23.48;46.22
59329;BME280;45100;46.926;7.452;2023-10-09T12:19:40;95995.66;;;23.53;46.72
59329;BME280;45100;46.926;7.452;2023-10-09T12:22:16;95993.99;;;23.59;46.60
59329;BME280;45100;46.926;7.452;2023-10-09T12:24:44;95990.38;;;23.62;46.53
59329;BME280;45100;46.926;7.452;2023-10-09T12:27:12;95980.89;;;23.63;46.99
59329;BME280;45100;46.926;7.452;2023-10-09T12:29:46;95985.02;;;23.67;47.34
59329;BME280;45100;46.926;7.452;2023-10-09T12:32:12;95983.25;;;23.71;47.92
59329;BME280;45100;46.926;7.452;2023-10-09T12:34:45;95981.25;;;23.76;47.71
59329;BME280;45100;46.926;7.452;2023-10-09T12:37:13;95982.11;;;23.82;47.47
59329;BME280;45100;46.926;7.452;2023-10-09T12:39:44;95980.37;;;23.89;47.92
59329;BME280;45100;46.926;7.452;2023-10-09T12:44:52;95971.98;;;23.94;48.26
59329;BME280;45100;46.926;7.452;2023-10-09T12:47:20;95968.91;;;23.97;48.44
59329;BME280;45100;46.926;7.452;2023-10-09T12:49:54;95965.17;;;24.02;48.32
59329;BME280;45100;46.926;7.452;2023-10-09T12:52:26;95965.41;;;24.03;48.31
59329;BME280;45100;46.926;7.452;2023-10-09T12:54:54;95962.77;;;24.04;48.42
59329;BME280;45100;46.926;7.452;2023-10-09T12:57:24;95959.39;;;24.02;48.54
59329;BME280;45100;46.926;7.452;2023-10-09T12:59:53;95954.61;;;24.02;48.55
59329;BME280;45100;46.926;7.452;2023-10-09T13:02:30;95954.66;;;24.02;48.67
59329;BME280;45100;46.926;7.452;2023-10-09T13:04:58;95950.70;;;24.02;49.06
59329;BME280;45100;46.926;7.452;2023-10-09T13:07:24;95948.88;;;24.02;49.26
59329;BME280;45100;46.926;7.452;2023-10-09T13:10:13;95945.31;;;24.02;49.75
59329;BME280;45100;46.926;7.452;2023-10-09T13:12:25;95943.77;;;24.02;49.61
59329;BME280;45100;46.926;7.452;2023-10-09T13:14:56;95945.11;;;24.03;49.74
59329;BME280;45100;46.926;7.452;2023-10-09T13:17:29;95939.92;;;24.05;49.76
59329;BME280;45100;46.926;7.452;2023-10-09T13:19:57;95936.60;;;24.09;49.57
59329;BME280;45100;46.926;7.452;2023-10-09T13:22:28;95933.30;;;24.14;49.75
59329;BME280;45100;46.926;7.452;2023-10-09T13:25:05;95927.64;;;24.19;47.90
59329;BME280;45100;46.926;7.452;2023-10-09T13:27:36;95926.88;;;24.26;49.22
59329;BME280;45100;46.926;7.452;2023-10-09T13:30:07;95924.47;;;24.29;48.01
59329;BME280;45100;46.926;7.452;2023-10-09T13:32:36;95919.69;;;24.32;48.73
59329;BME280;45100;46.926;7.452;2023-10-09T13:35:07;95917.72;;;24.33;48.03
59329;BME280;45100;46.926;7.452;2023-10-09T13:37:37;95917.88;;;24.35;48.90
59329;BME280;45100;46.926;7.452;2023-10-09T13:40:11;95916.84;;;24.36;49.64
59329;BME280;45100;46.926;7.452;2023-10-09T13:42:32;95916.72;;;24.34;48.95